createdAt,value
2016-11-02T00:00:03.280Z,1012.8
2016-11-02T00:01:02.604Z,1012.8
2016-11-02T00:02:02.505Z,1012.79
2016-11-02T00:03:03.433Z,1012.8
2016-11-02T00:04:02.748Z,1012.83
2016-11-02T00:05:02.546Z,1012.83
2016-11-02T00:06:03.555Z,1012.8
2016-11-02T00:07:02.864Z,1012.79
2016-11-02T00:08:02.537Z,1012.75
2016-11-02T00:09:03.678Z,1012.76
2016-11-02T00:10:02.988Z,1012.73
2016-11-02T00:11:02.652Z,1012.74
2016-11-02T00:12:03.733Z,1012.73
2016-11-02T00:13:03.111Z,1012.74
2016-11-02T00:14:02.579Z,1012.76
2016-11-02T00:15:02.585Z,1012.78
2016-11-02T00:16:03.231Z,1012.78
2016-11-02T00:17:02.599Z,1012.72
2016-11-02T00:18:02.607Z,1012.72
2016-11-02T00:19:03.406Z,1012.72
2016-11-02T00:20:02.731Z,1012.71
2016-11-02T00:21:02.710Z,1012.66
2016-11-02T00:22:03.481Z,1012.7
2016-11-02T00:23:02.785Z,1012.68
2016-11-02T00:24:02.698Z,1012.68
2016-11-02T00:25:03.653Z,1012.67
2016-11-02T00:26:02.960Z,1012.7
2016-11-02T00:27:02.669Z,1012.68
2016-11-02T00:28:03.774Z,1012.73
2016-11-02T00:30:02.690Z,1012.72
2016-11-02T00:31:03.747Z,1012.67
2016-11-02T00:32:03.204Z,1012.68
2016-11-02T00:33:02.731Z,1012.71
2016-11-02T00:34:02.719Z,1012.7
2016-11-02T00:35:03.327Z,1012.71
2016-11-02T00:36:02.732Z,1012.68
2016-11-02T00:37:02.741Z,1012.67
2016-11-02T00:38:03.485Z,1012.66
2016-11-02T00:39:02.760Z,1012.65
2016-11-02T00:40:02.762Z,1012.67
2016-11-02T00:41:03.573Z,1012.69
2016-11-02T00:42:02.972Z,1012.71
2016-11-02T00:43:02.888Z,1012.72
2016-11-02T00:44:03.695Z,1012.72
2016-11-02T00:45:03.055Z,1012.75
2016-11-02T00:46:02.876Z,1012.8
2016-11-02T00:47:03.852Z,1012.77
2016-11-02T00:48:03.126Z,1012.8
2016-11-02T00:49:02.823Z,1012.76
2016-11-02T00:50:03.989Z,1012.76
2016-11-02T00:51:03.386Z,1012.75
2016-11-02T00:52:02.845Z,1012.74
2016-11-02T00:53:03.896Z,1012.73
2016-11-02T00:54:03.462Z,1012.72
2016-11-02T00:55:02.862Z,1012.72
2016-11-02T00:56:02.869Z,1012.7
2016-11-02T00:57:03.618Z,1012.7
2016-11-02T00:58:02.921Z,1012.74
2016-11-02T00:59:02.890Z,1012.71
2016-11-02T01:00:03.662Z,1012.69
2016-11-02T01:01:03.029Z,1012.75
2016-11-02T01:02:02.911Z,1012.68
2016-11-02T01:03:03.837Z,1012.72
2016-11-02T01:04:03.094Z,1012.73
2016-11-02T01:05:02.930Z,1012.72
2016-11-02T01:06:03.957Z,1012.75
2016-11-02T01:07:03.265Z,1012.7
2016-11-02T01:08:02.952Z,1012.7
2016-11-02T01:09:04.079Z,1012.72
2016-11-02T01:11:02.972Z,1012.73
2016-11-02T01:12:04.103Z,1012.73
2016-11-02T01:13:03.510Z,1012.71
2016-11-02T01:14:02.991Z,1012.68
2016-11-02T01:15:04.197Z,1012.68
2016-11-02T01:16:03.632Z,1012.71
2016-11-02T01:17:03.010Z,1012.69
2016-11-02T01:18:03.016Z,1012.65
2016-11-02T01:19:03.753Z,1012.68
2016-11-02T01:20:03.063Z,1012.7
2016-11-02T01:21:03.045Z,1012.67
2016-11-02T01:22:03.875Z,1012.7
2016-11-02T01:23:03.183Z,1012.69
2016-11-02T01:24:03.112Z,1012.69
2016-11-02T01:25:04.049Z,1012.7
2016-11-02T01:26:03.358Z,1012.69
2016-11-02T01:27:03.082Z,1012.74
2016-11-02T01:28:04.923Z,1012.74
2016-11-02T01:30:03.102Z,1012.74
2016-11-02T01:31:04.158Z,1012.73
2016-11-02T01:32:03.603Z,1012.71
2016-11-02T01:33:03.123Z,1012.74
2016-11-02T01:34:04.242Z,1012.73
2016-11-02T01:35:03.727Z,1012.7
2016-11-02T01:36:03.144Z,1012.71
2016-11-02T01:37:03.148Z,1012.68
2016-11-02T01:38:03.849Z,1012.68
2016-11-02T01:39:03.163Z,1012.68
2016-11-02T01:40:03.170Z,1012.7
2016-11-02T01:41:03.969Z,1012.67
2016-11-02T01:42:03.529Z,1012.69
2016-11-02T01:43:03.191Z,1012.71
2016-11-02T01:44:04.159Z,1012.67
2016-11-02T01:45:03.451Z,1012.67
2016-11-02T01:46:03.217Z,1012.66
2016-11-02T01:47:04.266Z,1012.64
2016-11-02T01:48:03.525Z,1012.65
2016-11-02T01:49:03.233Z,1012.63
2016-11-02T01:50:04.389Z,1012.66
2016-11-02T01:51:03.697Z,1012.64
2016-11-02T01:52:03.253Z,1012.69
2016-11-02T01:53:04.326Z,1012.63
2016-11-02T01:54:03.820Z,1012.65
2016-11-02T01:55:03.275Z,1012.64
2016-11-02T01:56:03.282Z,1012.63
2016-11-02T01:57:03.945Z,1012.61
2016-11-02T01:58:03.297Z,1012.64
2016-11-02T01:59:03.304Z,1012.63
2016-11-02T02:00:04.067Z,1012.62
2016-11-02T02:01:03.526Z,1012.65
2016-11-02T02:02:03.323Z,1012.65
2016-11-02T02:03:06.142Z,1012.69
2016-11-02T02:04:03.500Z,1012.69
2016-11-02T02:05:03.346Z,1012.72
2016-11-02T02:06:04.312Z,1012.7
2016-11-02T02:07:03.671Z,1012.7
2016-11-02T02:08:03.367Z,1012.72
2016-11-02T02:09:04.484Z,1012.71
2016-11-02T02:10:03.744Z,1012.68
2016-11-02T02:11:03.689Z,1012.69
2016-11-02T02:12:04.447Z,1012.63
2016-11-02T02:13:03.916Z,1012.64
2016-11-02T02:14:03.412Z,1012.62
2016-11-02T02:15:03.417Z,1012.6
2016-11-02T02:16:04.039Z,1012.6
2016-11-02T02:17:03.431Z,1012.62
2016-11-02T02:18:03.438Z,1012.61
2016-11-02T02:19:04.163Z,1012.61
2016-11-02T02:20:03.470Z,1012.59
2016-11-02T02:21:03.460Z,1012.59
2016-11-02T02:22:04.285Z,1012.58
2016-11-02T02:23:03.595Z,1012.55
2016-11-02T02:24:03.480Z,1012.54
2016-11-02T02:25:04.407Z,1012.56
2016-11-02T02:26:03.718Z,1012.55
2016-11-02T02:27:03.502Z,1012.53
2016-11-02T02:28:04.581Z,1012.51
2016-11-02T02:30:03.523Z,1012.55
2016-11-02T02:31:04.583Z,1012.52
2016-11-02T02:32:04.012Z,1012.53
2016-11-02T02:33:03.544Z,1012.52
2016-11-02T02:34:04.613Z,1012.51
2016-11-02T02:35:04.135Z,1012.48
2016-11-02T02:36:03.822Z,1012.45
2016-11-02T02:37:03.573Z,1012.44
2016-11-02T02:38:04.261Z,1012.47
2016-11-02T02:39:03.587Z,1012.47
2016-11-02T02:40:03.593Z,1012.47
2016-11-02T02:41:04.383Z,1012.46
2016-11-02T02:42:03.690Z,1012.46
2016-11-02T02:43:03.615Z,1012.42
2016-11-02T02:44:04.555Z,1012.44
2016-11-02T02:45:03.866Z,1012.4
2016-11-02T02:46:03.636Z,1012.41
2016-11-02T02:47:04.677Z,1012.33
2016-11-02T02:48:03.986Z,1012.37
2016-11-02T02:49:03.710Z,1012.32
2016-11-02T02:50:04.802Z,1012.35
2016-11-02T02:51:04.108Z,1012.34
2016-11-02T02:52:03.678Z,1012.34
2016-11-02T02:53:04.748Z,1012.29
2016-11-02T02:54:04.232Z,1012.31
2016-11-02T02:55:03.699Z,1012.25
2016-11-02T02:56:03.707Z,1012.31
2016-11-02T02:57:04.355Z,1012.24
2016-11-02T02:58:03.720Z,1012.26
2016-11-02T03:00:04.477Z,1012.24
2016-11-02T03:01:03.786Z,1012.27
2016-11-02T03:02:03.749Z,1012.26
2016-11-02T03:03:04.651Z,1012.29
2016-11-02T03:04:03.908Z,1012.28
2016-11-02T03:05:03.819Z,1012.27
2016-11-02T03:06:04.775Z,1012.29
2016-11-02T03:07:04.080Z,1012.25
2016-11-02T03:08:03.789Z,1012.29
2016-11-02T03:09:04.898Z,1012.29
2016-11-02T03:10:04.204Z,1012.28
2016-11-02T03:11:03.812Z,1012.26
2016-11-02T03:12:04.869Z,1012.25
2016-11-02T03:13:04.329Z,1012.23
2016-11-02T03:14:03.833Z,1012.24
2016-11-02T03:15:03.839Z,1012.19
2016-11-02T03:16:04.451Z,1012.25
2016-11-02T03:17:03.854Z,1012.22
2016-11-02T03:18:03.860Z,1012.23
2016-11-02T03:19:04.575Z,1012.18
2016-11-02T03:20:03.881Z,1012.19
2016-11-02T03:21:03.881Z,1012.24
2016-11-02T03:22:04.696Z,1012.23
2016-11-02T03:23:04.075Z,1012.24
2016-11-02T03:24:03.903Z,1012.24
2016-11-02T03:25:04.819Z,1012.18
2016-11-02T03:26:04.177Z,1012.19
2016-11-02T03:27:03.922Z,1012.16
2016-11-02T03:28:04.992Z,1012.15
2016-11-02T03:29:06.216Z,1012.12
2016-11-02T03:30:03.943Z,1012.12
2016-11-02T03:31:05.116Z,1012.1
2016-11-02T03:32:04.421Z,1012.1
2016-11-02T03:33:03.968Z,1012.09
2016-11-02T03:34:05.023Z,1012.12
2016-11-02T03:35:04.544Z,1012.07
2016-11-02T03:36:03.989Z,1012.06
2016-11-02T03:37:03.995Z,1012.04
2016-11-02T03:38:04.671Z,1012.05
2016-11-02T03:39:04.061Z,1012.06
2016-11-02T03:40:05.319Z,1012.02
2016-11-02T03:41:04.792Z,1012.04
2016-11-02T03:42:04.099Z,1012.03
2016-11-02T03:43:04.038Z,1011.99
2016-11-02T03:44:04.914Z,1011.99
2016-11-02T03:45:04.222Z,1011.98
2016-11-02T03:46:04.059Z,1011.96
2016-11-02T03:47:05.037Z,1011.95
2016-11-02T03:48:04.344Z,1011.94
2016-11-02T03:49:04.082Z,1011.93
2016-11-02T03:50:05.208Z,1011.92
2016-11-02T03:51:04.468Z,1011.94
2016-11-02T03:52:04.101Z,1011.96
2016-11-02T03:53:07.164Z,1011.93
2016-11-02T03:54:04.640Z,1011.94
2016-11-02T03:55:04.122Z,1011.97
2016-11-02T03:56:04.129Z,1011.96
2016-11-02T03:57:04.764Z,1011.98
2016-11-02T03:58:04.144Z,1011.97
2016-11-02T03:59:05.852Z,1011.98
2016-11-02T04:00:04.884Z,1011.95
2016-11-02T04:01:04.194Z,1011.9
2016-11-02T04:02:04.173Z,1011.91
2016-11-02T04:03:05.041Z,1011.91
2016-11-02T04:04:04.317Z,1011.88
2016-11-02T04:05:04.194Z,1011.89
2016-11-02T04:06:05.129Z,1011.84
2016-11-02T04:07:04.489Z,1011.9
2016-11-02T04:08:04.216Z,1011.89
2016-11-02T04:09:05.253Z,1011.89
2016-11-02T04:10:04.613Z,1011.92
2016-11-02T04:11:04.237Z,1011.87
2016-11-02T04:12:05.292Z,1011.89
2016-11-02T04:13:04.736Z,1011.87
2016-11-02T04:14:04.256Z,1011.88
2016-11-02T04:15:05.412Z,1011.87
2016-11-02T04:16:04.858Z,1011.88
2016-11-02T04:17:04.283Z,1011.9
2016-11-02T04:18:04.282Z,1011.86
2016-11-02T04:19:04.984Z,1011.89
2016-11-02T04:20:04.297Z,1011.85
2016-11-02T04:21:04.303Z,1011.84
2016-11-02T04:22:05.105Z,1011.8
2016-11-02T04:23:04.463Z,1011.81
2016-11-02T04:24:04.324Z,1011.83
2016-11-02T04:25:05.226Z,1011.82
2016-11-02T04:26:05.083Z,1011.83
2016-11-02T04:27:04.344Z,1011.85
2016-11-02T04:28:05.349Z,1011.82
2016-11-02T04:30:04.366Z,1011.82
2016-11-02T04:31:05.520Z,1011.85
2016-11-02T04:32:04.829Z,1011.87
2016-11-02T04:33:04.386Z,1011.84
2016-11-02T04:34:05.457Z,1011.85
2016-11-02T04:35:04.952Z,1011.88
2016-11-02T04:36:04.408Z,1011.84
2016-11-02T04:37:05.616Z,1011.86
2016-11-02T04:38:05.126Z,1011.81
2016-11-02T04:39:04.426Z,1011.86
2016-11-02T04:40:04.434Z,1011.86
2016-11-02T04:41:05.199Z,1011.82
2016-11-02T04:42:04.509Z,1011.86
2016-11-02T04:43:04.455Z,1011.83
2016-11-02T04:44:05.371Z,1011.87
2016-11-02T04:45:04.679Z,1011.83
2016-11-02T04:46:04.476Z,1011.83
2016-11-02T04:47:05.495Z,1011.82
2016-11-02T04:48:04.803Z,1011.81
2016-11-02T04:49:04.497Z,1011.8
2016-11-02T04:50:05.617Z,1011.8
2016-11-02T04:51:04.873Z,1011.78
2016-11-02T04:52:04.517Z,1011.76
2016-11-02T04:53:05.576Z,1011.76
2016-11-02T04:54:05.048Z,1011.77
2016-11-02T04:55:04.537Z,1011.76
2016-11-02T04:56:04.546Z,1011.75
2016-11-02T04:57:05.169Z,1011.72
2016-11-02T04:58:04.559Z,1011.72
2016-11-02T04:59:04.616Z,1011.69
2016-11-02T05:00:05.292Z,1011.69
2016-11-02T05:01:04.602Z,1011.71
2016-11-02T05:02:04.588Z,1011.69
2016-11-02T05:03:05.417Z,1011.68
2016-11-02T05:04:04.724Z,1011.67
2016-11-02T05:05:04.607Z,1011.68
2016-11-02T05:06:05.588Z,1011.67
2016-11-02T05:07:04.896Z,1011.67
2016-11-02T05:08:04.629Z,1011.72
2016-11-02T05:09:05.727Z,1011.7
2016-11-02T05:10:05.019Z,1011.68
2016-11-02T05:11:04.650Z,1011.7
2016-11-02T05:12:05.728Z,1011.69
2016-11-02T05:13:05.140Z,1011.63
2016-11-02T05:14:04.671Z,1011.65
2016-11-02T05:15:05.901Z,1011.65
2016-11-02T05:16:05.267Z,1011.62
2016-11-02T05:17:04.693Z,1011.63
2016-11-02T05:18:04.699Z,1011.61
2016-11-02T05:19:07.340Z,1011.57
2016-11-02T05:20:04.713Z,1011.62
2016-11-02T05:21:04.719Z,1011.63
2016-11-02T05:22:05.509Z,1011.63
2016-11-02T05:23:04.816Z,1011.62
2016-11-02T05:24:04.741Z,1011.64
2016-11-02T05:25:05.680Z,1011.65
2016-11-02T05:26:04.940Z,1011.66
2016-11-02T05:27:04.760Z,1011.67
2016-11-02T05:28:05.806Z,1011.63
2016-11-02T05:29:05.115Z,1011.68
2016-11-02T05:30:04.783Z,1011.7
2016-11-02T05:31:05.927Z,1011.72
2016-11-02T05:32:05.238Z,1011.73
2016-11-02T05:33:04.852Z,1011.75
2016-11-02T05:34:05.874Z,1011.71
2016-11-02T05:35:05.360Z,1011.72
2016-11-02T05:36:04.824Z,1011.67
2016-11-02T05:37:04.832Z,1011.68
2016-11-02T05:38:05.481Z,1011.6
2016-11-02T05:39:04.845Z,1011.58
2016-11-02T05:40:04.852Z,1011.6
2016-11-02T05:41:06.003Z,1011.61
2016-11-02T05:42:04.912Z,1011.61
2016-11-02T05:43:04.873Z,1011.62
2016-11-02T05:44:05.726Z,1011.59
2016-11-02T05:45:05.037Z,1011.63
2016-11-02T05:46:04.895Z,1011.64
2016-11-02T05:47:05.850Z,1011.6
2016-11-02T05:48:05.208Z,1011.65
2016-11-02T05:49:04.915Z,1011.62
2016-11-02T05:50:06.025Z,1011.65
2016-11-02T05:51:05.281Z,1011.62
2016-11-02T05:52:06.637Z,1011.62
2016-11-02T05:53:05.991Z,1011.65
2016-11-02T05:54:05.454Z,1011.63
2016-11-02T05:55:04.957Z,1011.66
2016-11-02T05:56:04.963Z,1011.6
2016-11-02T05:57:05.575Z,1011.65
2016-11-02T05:58:04.977Z,1011.64
2016-11-02T06:00:05.698Z,1011.64
2016-11-02T06:01:05.007Z,1011.63
2016-11-02T06:02:05.005Z,1011.64
2016-11-02T06:03:05.821Z,1011.58
2016-11-02T06:04:05.130Z,1011.64
2016-11-02T06:05:05.025Z,1011.63
2016-11-02T06:06:05.994Z,1011.6
2016-11-02T06:07:05.303Z,1011.6
2016-11-02T06:08:05.044Z,1011.61
2016-11-02T06:09:06.117Z,1011.61
2016-11-02T06:10:05.425Z,1011.64
2016-11-02T06:11:05.116Z,1011.62
2016-11-02T06:12:06.175Z,1011.64
2016-11-02T06:13:05.548Z,1011.64
2016-11-02T06:14:05.636Z,1011.61
2016-11-02T06:15:06.152Z,1011.65
2016-11-02T06:16:05.670Z,1011.65
2016-11-02T06:17:05.107Z,1011.64
2016-11-02T06:18:05.112Z,1011.67
2016-11-02T06:19:05.800Z,1011.68
2016-11-02T06:20:05.127Z,1011.7
2016-11-02T06:21:05.135Z,1011.7
2016-11-02T06:22:05.914Z,1011.72
2016-11-02T06:23:05.225Z,1011.7
2016-11-02T06:24:05.155Z,1011.7
2016-11-02T06:25:06.090Z,1011.75
2016-11-02T06:26:05.398Z,1011.72
2016-11-02T06:27:05.175Z,1011.72
2016-11-02T06:28:06.211Z,1011.7
2016-11-02T06:29:05.470Z,1011.73
2016-11-02T06:30:05.196Z,1011.7
2016-11-02T06:31:06.332Z,1011.73
2016-11-02T06:32:05.642Z,1011.75
2016-11-02T06:33:05.215Z,1011.76
2016-11-02T06:34:06.356Z,1011.73
2016-11-02T06:35:05.764Z,1011.72
2016-11-02T06:36:05.636Z,1011.73
2016-11-02T06:37:05.243Z,1011.76
2016-11-02T06:38:05.888Z,1011.79
2016-11-02T06:39:05.257Z,1011.77
2016-11-02T06:40:05.265Z,1011.75
2016-11-02T06:41:06.010Z,1011.81
2016-11-02T06:42:05.368Z,1011.84
2016-11-02T06:43:05.285Z,1011.81
2016-11-02T06:44:06.134Z,1011.81
2016-11-02T06:45:05.490Z,1011.8
2016-11-02T06:46:05.305Z,1011.85
2016-11-02T06:47:06.304Z,1011.85
2016-11-02T06:48:05.616Z,1011.81
2016-11-02T06:49:05.325Z,1011.85
2016-11-02T06:50:06.379Z,1011.84
2016-11-02T06:51:05.738Z,1011.84
2016-11-02T06:52:05.346Z,1011.84
2016-11-02T06:53:06.404Z,1011.9
2016-11-02T06:54:05.860Z,1011.89
2016-11-02T06:55:05.369Z,1011.86
2016-11-02T06:56:05.376Z,1011.86
2016-11-02T06:57:05.981Z,1011.89
2016-11-02T06:58:05.538Z,1011.93
2016-11-02T06:59:06.696Z,1011.92
2016-11-02T07:00:06.106Z,1011.95
2016-11-02T07:01:05.414Z,1011.91
2016-11-02T07:02:05.416Z,1011.96
2016-11-02T07:03:06.280Z,1011.91
2016-11-02T07:04:05.536Z,1011.91
2016-11-02T07:05:05.436Z,1011.94
2016-11-02T07:06:06.400Z,1011.94
2016-11-02T07:07:05.658Z,1012
2016-11-02T07:08:05.459Z,1012.03
2016-11-02T07:09:06.523Z,1011.99
2016-11-02T07:10:05.781Z,1012.01
2016-11-02T07:11:05.479Z,1012.03
2016-11-02T07:12:06.645Z,1012.02
2016-11-02T07:13:05.952Z,1012
2016-11-02T07:14:05.550Z,1012.06
2016-11-02T07:15:06.554Z,1012.03
2016-11-02T07:16:06.078Z,1012.02
2016-11-02T07:17:05.519Z,1011.97
2016-11-02T07:18:05.528Z,1011.98
2016-11-02T07:19:06.204Z,1011.96
2016-11-02T07:20:05.592Z,1011.96
2016-11-02T07:21:05.550Z,1011.99
2016-11-02T07:22:08.276Z,1011.99
2016-11-02T07:23:05.630Z,1011.97
2016-11-02T07:24:05.569Z,1012.01
2016-11-02T07:25:06.497Z,1011.99
2016-11-02T07:26:05.810Z,1012.02
2016-11-02T07:27:05.591Z,1012.02
2016-11-02T07:28:06.619Z,1012.01
2016-11-02T07:29:05.925Z,1012.02
2016-11-02T07:30:05.618Z,1012
2016-11-02T07:31:06.740Z,1012.06
2016-11-02T07:32:06.049Z,1012.06
2016-11-02T07:33:05.633Z,1012.09
2016-11-02T07:34:06.766Z,1012.11
2016-11-02T07:35:06.171Z,1012.15
2016-11-02T07:36:05.651Z,1012.1
2016-11-02T07:37:05.659Z,1012.11
2016-11-02T07:38:06.291Z,1012.16
2016-11-02T07:39:05.673Z,1012.17
2016-11-02T07:40:05.680Z,1012.09
2016-11-02T07:41:06.417Z,1012.11
2016-11-02T07:42:05.825Z,1012.1
2016-11-02T07:43:05.700Z,1012.08
2016-11-02T07:44:08.492Z,1012.09
2016-11-02T07:45:05.849Z,1012.09
2016-11-02T07:46:05.720Z,1012.08
2016-11-02T07:47:06.660Z,1012.11
2016-11-02T07:48:06.021Z,1012.09
2016-11-02T07:49:05.744Z,1012.11
2016-11-02T07:50:06.833Z,1012.1
2016-11-02T07:51:06.094Z,1012.11
2016-11-02T07:52:05.764Z,1012.15
2016-11-02T07:53:06.821Z,1012.16
2016-11-02T07:54:06.268Z,1012.14
2016-11-02T07:55:05.791Z,1012.16
2016-11-02T07:56:05.794Z,1012.17
2016-11-02T07:57:06.388Z,1012.16
2016-11-02T07:58:05.806Z,1012.16
2016-11-02T07:59:07.116Z,1012.17
2016-11-02T08:00:06.528Z,1012.18
2016-11-02T08:01:05.826Z,1012.19
2016-11-02T08:02:05.834Z,1012.2
2016-11-02T08:03:06.635Z,1012.22
2016-11-02T08:04:05.941Z,1012.24
2016-11-02T08:05:05.856Z,1012.25
2016-11-02T08:06:08.709Z,1012.27
2016-11-02T08:07:06.115Z,1012.28
2016-11-02T08:08:05.877Z,1012.31
2016-11-02T08:09:06.877Z,1012.27
2016-11-02T08:10:06.236Z,1012.26
2016-11-02T08:11:05.899Z,1012.24
2016-11-02T08:12:07.050Z,1012.27
2016-11-02T08:13:06.359Z,1012.32
2016-11-02T08:14:05.921Z,1012.31
2016-11-02T08:15:06.991Z,1012.33
2016-11-02T08:16:06.481Z,1012.41
2016-11-02T08:17:05.943Z,1012.38
2016-11-02T08:18:05.951Z,1012.42
2016-11-02T08:19:06.606Z,1012.41
2016-11-02T08:20:06.016Z,1012.45
2016-11-02T08:21:05.973Z,1012.39
2016-11-02T08:22:06.726Z,1012.39
2016-11-02T08:23:06.037Z,1012.43
2016-11-02T08:24:05.995Z,1012.42
2016-11-02T08:25:06.849Z,1012.38
2016-11-02T08:26:06.157Z,1012.41
2016-11-02T08:27:06.018Z,1012.43
2016-11-02T08:28:07.624Z,1012.43
2016-11-02T08:29:06.321Z,1012.38
2016-11-02T08:30:06.041Z,1012.39
2016-11-02T08:31:07.145Z,1012.36
2016-11-02T08:32:06.454Z,1012.32
2016-11-02T08:33:06.063Z,1012.29
2016-11-02T08:34:07.122Z,1012.28
2016-11-02T08:35:06.577Z,1012.28
2016-11-02T08:36:06.086Z,1012.29
2016-11-02T08:37:06.093Z,1012.34
2016-11-02T08:38:06.950Z,1012.32
2016-11-02T08:39:08.011Z,1012.34
2016-11-02T08:40:06.116Z,1012.36
2016-11-02T08:41:06.822Z,1012.39
2016-11-02T08:42:06.132Z,1012.38
2016-11-02T08:43:06.139Z,1012.37
2016-11-02T08:44:06.996Z,1012.35
2016-11-02T08:45:06.252Z,1012.39
2016-11-02T08:46:06.161Z,1012.39
2016-11-02T08:47:07.067Z,1012.43
2016-11-02T08:48:06.425Z,1012.44
2016-11-02T08:49:06.186Z,1012.42
2016-11-02T08:50:07.190Z,1012.43
2016-11-02T08:51:06.548Z,1012.42
2016-11-02T08:52:06.243Z,1012.47
2016-11-02T08:53:07.361Z,1012.46
2016-11-02T08:54:06.669Z,1012.4
2016-11-02T08:55:06.231Z,1012.39
2016-11-02T08:56:07.300Z,1012.41
2016-11-02T08:57:06.793Z,1012.38
2016-11-02T08:58:06.254Z,1012.36
2016-11-02T08:59:06.261Z,1012.37
2016-11-02T09:00:06.917Z,1012.39
2016-11-02T09:01:06.827Z,1012.41
2016-11-02T09:02:06.283Z,1012.39
2016-11-02T09:03:07.088Z,1012.35
2016-11-02T09:04:06.347Z,1012.38
2016-11-02T09:05:06.359Z,1012.36
2016-11-02T09:06:07.161Z,1012.36
2016-11-02T09:07:06.468Z,1012.37
2016-11-02T09:08:06.332Z,1012.37
2016-11-02T09:09:07.282Z,1012.38
2016-11-02T09:10:06.642Z,1012.34
2016-11-02T09:11:06.353Z,1012.39
2016-11-02T09:12:07.406Z,1012.4
2016-11-02T09:13:06.764Z,1012.38
2016-11-02T09:14:06.378Z,1012.39
2016-11-02T09:15:07.437Z,1012.38
2016-11-02T09:16:06.904Z,1012.41
2016-11-02T09:17:06.401Z,1012.39
2016-11-02T09:18:06.409Z,1012.39
2016-11-02T09:19:07.009Z,1012.34
2016-11-02T09:20:06.425Z,1012.37
2016-11-02T09:21:06.433Z,1012.36
2016-11-02T09:22:07.133Z,1012.33
2016-11-02T09:23:06.898Z,1012.36
2016-11-02T09:24:06.456Z,1012.35
2016-11-02T09:25:07.255Z,1012.35
2016-11-02T09:26:06.565Z,1012.34
2016-11-02T09:27:06.480Z,1012.33
2016-11-02T09:28:07.377Z,1012.31
2016-11-02T09:29:06.687Z,1012.38
2016-11-02T09:30:06.503Z,1012.33
2016-11-02T09:31:07.550Z,1012.42
2016-11-02T09:32:06.859Z,1012.39
2016-11-02T09:33:06.527Z,1012.4
2016-11-02T09:34:07.673Z,1012.4
2016-11-02T09:35:06.980Z,1012.42
2016-11-02T09:36:06.549Z,1012.43
2016-11-02T09:37:07.697Z,1012.38
2016-11-02T09:38:07.105Z,1012.34
2016-11-02T09:39:06.572Z,1012.41
2016-11-02T09:40:06.582Z,1012.39
2016-11-02T09:41:07.228Z,1012.39
2016-11-02T09:42:06.598Z,1012.34
2016-11-02T09:43:06.654Z,1012.37
2016-11-02T09:44:07.351Z,1012.34
2016-11-02T09:45:06.711Z,1012.39
2016-11-02T09:46:06.628Z,1012.37
2016-11-02T09:47:07.473Z,1012.36
2016-11-02T09:48:06.781Z,1012.41
2016-11-02T09:49:06.653Z,1012.35
2016-11-02T09:50:07.596Z,1012.36
2016-11-02T09:51:06.955Z,1012.34
2016-11-02T09:52:06.678Z,1012.34
2016-11-02T09:53:07.722Z,1012.34
2016-11-02T09:54:07.076Z,1012.33
2016-11-02T09:55:06.699Z,1012.32
2016-11-02T09:56:07.758Z,1012.31
2016-11-02T09:57:07.198Z,1012.32
2016-11-02T09:58:06.723Z,1012.3
2016-11-02T09:59:06.729Z,1012.3
2016-11-02T10:00:07.323Z,1012.3
2016-11-02T10:01:06.744Z,1012.34
2016-11-02T10:02:06.803Z,1012.36
2016-11-02T10:03:07.445Z,1012.31
2016-11-02T10:04:06.819Z,1012.31
2016-11-02T10:05:06.777Z,1012.26
2016-11-02T10:06:07.618Z,1012.26
2016-11-02T10:07:06.928Z,1012.27
2016-11-02T10:08:06.800Z,1012.33
2016-11-02T10:09:09.643Z,1012.32
2016-11-02T10:10:06.998Z,1012.31
2016-11-02T10:11:06.833Z,1012.31
2016-11-02T10:12:07.832Z,1012.28
2016-11-02T10:13:07.170Z,1012.29
2016-11-02T10:14:06.848Z,1012.27
2016-11-02T10:15:07.986Z,1012.3
2016-11-02T10:16:07.293Z,1012.27
2016-11-02T10:17:06.871Z,1012.26
2016-11-02T10:18:07.979Z,1012.26
2016-11-02T10:19:07.419Z,1012.25
2016-11-02T10:20:06.896Z,1012.27
2016-11-02T10:21:06.902Z,1012.23
2016-11-02T10:22:07.540Z,1012.27
2016-11-02T10:23:07.067Z,1012.27
2016-11-02T10:24:06.926Z,1012.28
2016-11-02T10:25:07.692Z,1012.27
2016-11-02T10:26:06.971Z,1012.27
2016-11-02T10:27:06.949Z,1012.31
2016-11-02T10:28:07.785Z,1012.25
2016-11-02T10:30:06.979Z,1012.24
2016-11-02T10:31:08.588Z,1012.25
2016-11-02T10:32:07.268Z,1012.24
2016-11-02T10:33:06.997Z,1012.26
2016-11-02T10:34:08.030Z,1012.2
2016-11-02T10:35:07.396Z,1012.23
2016-11-02T10:36:07.019Z,1012.19
2016-11-02T10:37:08.076Z,1012.21
2016-11-02T10:38:07.515Z,1012.22
2016-11-02T10:39:07.043Z,1012.2
2016-11-02T10:40:08.113Z,1012.21
2016-11-02T10:41:07.649Z,1012.21
2016-11-02T10:42:07.071Z,1012.23
2016-11-02T10:43:07.162Z,1012.22
2016-11-02T10:44:07.758Z,1012.18
2016-11-02T10:45:07.089Z,1012.14
2016-11-02T10:46:07.164Z,1012.15
2016-11-02T10:47:07.995Z,1012.11
2016-11-02T10:48:07.198Z,1012.13
2016-11-02T10:49:07.306Z,1012.16
2016-11-02T10:50:08.111Z,1012.14
2016-11-02T10:51:07.442Z,1012.12
2016-11-02T10:52:07.459Z,1012.09
2016-11-02T10:53:10.106Z,1012.08
2016-11-02T10:54:07.603Z,1012.01
2016-11-02T10:55:07.332Z,1012.09
2016-11-02T10:56:08.305Z,1012.1
2016-11-02T10:57:07.610Z,1012.07
2016-11-02T10:58:07.194Z,1012.1
2016-11-02T10:59:08.396Z,1012.11
2016-11-02T11:00:07.737Z,1012.04
2016-11-02T11:01:07.281Z,1011.99
2016-11-02T11:02:08.427Z,1012.03
2016-11-02T11:03:07.859Z,1012.01
2016-11-02T11:04:07.239Z,1011.96
2016-11-02T11:05:07.270Z,1011.98
2016-11-02T11:06:07.977Z,1011.91
2016-11-02T11:07:07.285Z,1011.92
2016-11-02T11:08:07.293Z,1011.89
2016-11-02T11:09:08.101Z,1011.87
2016-11-02T11:10:07.408Z,1011.91
2016-11-02T11:11:07.292Z,1011.91
2016-11-02T11:12:08.273Z,1011.95
2016-11-02T11:13:08.230Z,1011.93
2016-11-02T11:14:07.376Z,1011.97
2016-11-02T11:15:08.399Z,1011.91
2016-11-02T11:16:07.653Z,1011.91
2016-11-02T11:17:07.392Z,1011.99
2016-11-02T11:18:08.472Z,1011.93
2016-11-02T11:19:07.861Z,1011.89
2016-11-02T11:20:07.362Z,1011.88
2016-11-02T11:21:08.425Z,1011.86
2016-11-02T11:22:07.948Z,1011.86
2016-11-02T11:23:07.386Z,1011.84
2016-11-02T11:24:08.646Z,1011.91
2016-11-02T11:25:08.071Z,1011.89
2016-11-02T11:26:07.411Z,1011.87
2016-11-02T11:27:07.418Z,1011.83
2016-11-02T11:28:08.195Z,1011.84
2016-11-02T11:29:07.506Z,1011.82
2016-11-02T11:30:07.492Z,1011.83
2016-11-02T11:31:08.368Z,1011.85
2016-11-02T11:32:07.624Z,1011.82
2016-11-02T11:33:07.516Z,1011.83
2016-11-02T11:34:08.441Z,1011.8
2016-11-02T11:35:08.148Z,1011.83
2016-11-02T11:36:07.538Z,1011.84
2016-11-02T11:37:08.611Z,1011.9
2016-11-02T11:38:07.871Z,1011.91
2016-11-02T11:39:07.513Z,1011.93
2016-11-02T11:40:08.573Z,1011.89
2016-11-02T11:41:08.058Z,1011.87
2016-11-02T11:42:07.538Z,1011.93
2016-11-02T11:43:08.656Z,1011.94
2016-11-02T11:44:08.172Z,1011.88
2016-11-02T11:45:07.610Z,1011.97
2016-11-02T11:46:08.819Z,1011.94
2016-11-02T11:47:08.341Z,1011.92
2016-11-02T11:48:07.601Z,1011.85
2016-11-02T11:49:07.592Z,1011.89
2016-11-02T11:50:08.461Z,1011.86
2016-11-02T11:51:07.720Z,1011.86
2016-11-02T11:52:07.666Z,1011.83
2016-11-02T11:53:08.535Z,1011.91
2016-11-02T11:54:07.894Z,1011.89
2016-11-02T11:55:07.639Z,1011.86
2016-11-02T11:56:08.707Z,1011.83
2016-11-02T11:57:08.078Z,1011.86
2016-11-02T11:58:07.661Z,1011.83
2016-11-02T11:59:10.732Z,1011.79
2016-11-02T12:00:08.143Z,1011.79
2016-11-02T12:01:07.735Z,1011.83
2016-11-02T12:02:08.738Z,1011.78
2016-11-02T12:03:07.702Z,1011.76
2016-11-02T12:04:08.695Z,1011.73
2016-11-02T12:05:08.002Z,1011.76
2016-11-02T12:06:07.725Z,1011.7
2016-11-02T12:07:08.818Z,1011.71
2016-11-02T12:08:08.326Z,1011.72
2016-11-02T12:09:07.748Z,1011.7
2016-11-02T12:10:10.773Z,1011.7
2016-11-02T12:11:08.265Z,1011.69
2016-11-02T12:12:07.770Z,1011.68
2016-11-02T12:13:08.846Z,1011.68
2016-11-02T12:14:08.385Z,1011.69
2016-11-02T12:15:07.845Z,1011.71
2016-11-02T12:16:07.802Z,1011.66